Terminal Aerodrome Forecast
Issued by NWS

Home | Current Version | Previous Version | Graphics & Text | Print | Product List | Glossary On
Versions: 1 2 3 4 5 6 7 8 9 10 11 12 13 14 15
000
FTUS43 KTOP 270942 AAB
TAFFOE
TAF AMD
KFOE 270942Z 2710/2806 12005KT P6SM VCSH SCT020
      TEMPO 2710/2712 31015G25KT 4SM TSRA BR BKN025CB
     FM271400 16007KT P6SM SCT045=

USA.gov is the U.S. government's official web portal to all federal, state and local government web resources and services.